createdAt,value
2023-01-11T00:02:06.022Z,97051.00
2023-01-11T00:04:32.181Z,97050.00
2023-01-11T00:06:58.432Z,97050.00
2023-01-11T00:09:24.652Z,97053.00
2023-01-11T00:11:50.840Z,97049.00
2023-01-11T00:14:17.230Z,97052.00
2023-01-11T00:16:43.351Z,97036.00
2023-01-11T00:19:09.483Z,97038.00
2023-01-11T00:21:35.608Z,97033.00
2023-01-11T00:24:01.825Z,97029.00
2023-01-11T00:26:27.966Z,97045.00
2023-01-11T00:28:54.468Z,97038.00
2023-01-11T00:31:20.924Z,97026.00
2023-01-11T00:33:47.417Z,97034.00
2023-01-11T00:36:13.816Z,97033.00
2023-01-11T00:39:06.153Z,97032.00
2023-01-11T00:41:51.274Z,97029.00
2023-01-11T00:44:46.569Z,97018.00
2023-01-11T00:47:33.649Z,97026.00
2023-01-11T00:50:00.395Z,97014.00
2023-01-11T00:52:26.925Z,97019.00
2023-01-11T00:54:53.323Z,96993.00
2023-01-11T00:57:19.629Z,97016.00
2023-01-11T00:59:45.931Z,97015.00
2023-01-11T01:02:12.764Z,97007.00
2023-01-11T01:04:39.601Z,97017.00
2023-01-11T01:07:06.655Z,97004.00
2023-01-11T01:09:33.023Z,96997.00
2023-01-11T01:12:01.499Z,96991.00
2023-01-11T01:14:29.390Z,97012.00
2023-01-11T01:17:00.758Z,97004.00
2023-01-11T01:19:28.798Z,96985.00
2023-01-11T01:21:58.019Z,97000.00
2023-01-11T01:24:27.577Z,97000.00
2023-01-11T01:26:54.814Z,96998.00
2023-01-11T01:29:21.226Z,96996.00
2023-01-11T01:31:47.545Z,96998.00
2023-01-11T01:34:14.062Z,97005.00
2023-01-11T01:36:40.687Z,96992.00
2023-01-11T01:39:09.146Z,96998.00
2023-01-11T01:41:35.931Z,97000.00
2023-01-11T01:44:24.637Z,96997.00
2023-01-11T01:46:51.100Z,97004.00
2023-01-11T01:49:17.799Z,97000.00
2023-01-11T01:51:54.093Z,96987.00
2023-01-11T01:54:29.719Z,96974.00
2023-01-11T01:57:05.891Z,96987.00
2023-01-11T01:59:33.419Z,96975.00
2023-01-11T02:02:00.801Z,96982.00
2023-01-11T02:04:38.974Z,96984.00
2023-01-11T02:07:15.867Z,96984.00
2023-01-11T02:09:51.381Z,96982.00
2023-01-11T02:12:18.533Z,96992.00
2023-01-11T02:14:47.082Z,96981.00
2023-01-11T02:17:13.815Z,96981.00
2023-01-11T02:20:13.365Z,96980.00
2023-01-11T02:23:28.513Z,96981.00
2023-01-11T02:26:12.648Z,96984.00
2023-01-11T02:29:04.265Z,96954.00
2023-01-11T02:32:16.166Z,96966.00
2023-01-11T02:35:27.150Z,96956.00
2023-01-11T02:38:28.700Z,96963.00
2023-01-11T02:41:20.135Z,96960.00
2023-01-11T02:44:28.126Z,96943.00
2023-01-11T02:47:00.210Z,96935.00
2023-01-11T02:49:39.139Z,96946.00
2023-01-11T02:52:21.975Z,96947.00
2023-01-11T02:54:55.698Z,96944.00
2023-01-11T02:57:25.908Z,96927.00
2023-01-11T02:59:56.103Z,96926.00
2023-01-11T03:02:22.239Z,96933.00
2023-01-11T03:04:48.391Z,96929.00
2023-01-11T03:07:53.806Z,96933.00
2023-01-11T03:11:05.171Z,96931.00
2023-01-11T03:14:12.929Z,96941.00
2023-01-11T03:16:53.176Z,96924.00
2023-01-11T03:19:50.925Z,96909.00
2023-01-11T03:22:38.474Z,96917.00
2023-01-11T03:25:38.269Z,96909.00
2023-01-11T03:28:37.958Z,96929.00
2023-01-11T03:31:22.028Z,96901.00
2023-01-11T03:34:12.126Z,96888.00
2023-01-11T03:37:12.918Z,96899.00
2023-01-11T03:40:20.142Z,96902.00
2023-01-11T03:43:12.178Z,96905.00
2023-01-11T03:46:12.931Z,96894.00
2023-01-11T03:48:52.047Z,96892.00
2023-01-11T03:51:27.158Z,96891.00
2023-01-11T03:53:58.851Z,96876.00
2023-01-11T03:57:10.074Z,96895.00
2023-01-11T03:59:39.785Z,96893.00
2023-01-11T04:02:23.825Z,96885.00
2023-01-11T04:04:50.972Z,96889.00
2023-01-11T04:07:18.080Z,96882.00
2023-01-11T04:09:45.092Z,96868.00
2023-01-11T04:12:11.347Z,96881.00
2023-01-11T04:14:37.812Z,96862.00
2023-01-11T04:17:04.992Z,96874.00
2023-01-11T04:19:31.424Z,96871.00
2023-01-11T04:21:57.589Z,96864.00
2023-01-11T04:24:23.841Z,96868.00
2023-01-11T04:26:50.371Z,96840.00
2023-01-11T04:29:16.498Z,96839.00
2023-01-11T04:31:42.881Z,96841.00
2023-01-11T04:34:10.752Z,96847.00
2023-01-11T04:36:36.928Z,96854.00
2023-01-11T04:39:04.172Z,96862.00
2023-01-11T04:41:48.637Z,96845.00
2023-01-11T04:44:14.783Z,96860.00
2023-01-11T04:46:40.973Z,96841.00
2023-01-11T04:49:07.313Z,96862.00
2023-01-11T04:51:33.412Z,96863.00
2023-01-11T04:53:59.543Z,96862.00
2023-01-11T04:56:25.668Z,96864.00
2023-01-11T04:58:53.220Z,96839.00
2023-01-11T05:01:19.538Z,96837.00
2023-01-11T05:03:46.564Z,96842.00
2023-01-11T05:06:14.194Z,96854.00
2023-01-11T05:08:45.840Z,96858.00
2023-01-11T05:11:12.352Z,96846.00
2023-01-11T05:13:41.062Z,96828.00
2023-01-11T05:16:23.377Z,96849.00
2023-01-11T05:18:58.348Z,96849.00
2023-01-11T05:21:30.674Z,96854.00
2023-01-11T05:24:00.187Z,96847.00
2023-01-11T05:26:35.034Z,96850.00
2023-01-11T05:29:07.881Z,96835.00
2023-01-11T05:31:37.024Z,96849.00
2023-01-11T05:34:06.182Z,96844.00
2023-01-11T05:36:34.082Z,96823.00
2023-01-11T05:39:00.358Z,96835.00
2023-01-11T05:41:27.229Z,96838.00
2023-01-11T05:44:13.451Z,96814.00
2023-01-11T05:46:42.878Z,96824.00
2023-01-11T05:49:11.437Z,96827.00
2023-01-11T05:51:38.413Z,96815.00
2023-01-11T05:54:08.413Z,96822.00
2023-01-11T05:56:34.578Z,96803.00
2023-01-11T05:59:01.457Z,96798.00
2023-01-11T06:01:27.600Z,96787.00
2023-01-11T06:03:53.746Z,96799.00
2023-01-11T06:06:20.947Z,96795.00
2023-01-11T06:08:47.761Z,96805.00
2023-01-11T06:11:14.520Z,96790.00
2023-01-11T06:13:41.310Z,96794.00
2023-01-11T06:16:15.350Z,96772.00
2023-01-11T06:18:45.635Z,96795.00
2023-01-11T06:21:13.352Z,96783.00
2023-01-11T06:23:43.386Z,96801.00
2023-01-11T06:26:15.556Z,96794.00
2023-01-11T06:28:42.683Z,96788.00
2023-01-11T06:31:09.258Z,96793.00
2023-01-11T06:33:36.467Z,96787.00
2023-01-11T06:36:09.465Z,96784.00
2023-01-11T06:38:37.455Z,96787.00
2023-01-11T06:41:07.655Z,96782.00
2023-01-11T06:43:36.202Z,96786.00
2023-01-11T06:46:02.531Z,96771.00
2023-01-11T06:48:29.050Z,96761.00
2023-01-11T06:50:57.399Z,96775.00
2023-01-11T06:53:28.343Z,96793.00
2023-01-11T06:55:56.984Z,96778.00
2023-01-11T06:58:27.322Z,96770.00
2023-01-11T07:00:56.373Z,96775.00
2023-01-11T07:03:24.812Z,96789.00
2023-01-11T07:05:56.018Z,96774.00
2023-01-11T07:08:23.859Z,96800.00
2023-01-11T07:10:50.310Z,96791.00
2023-01-11T07:13:17.546Z,96802.00
2023-01-11T07:15:47.783Z,96802.00
2023-01-11T07:18:14.404Z,96777.00
2023-01-11T07:20:41.696Z,96789.00
2023-01-11T07:23:08.935Z,96802.00
2023-01-11T07:25:35.079Z,96788.00
2023-01-11T07:28:05.283Z,96807.00
2023-01-11T07:30:47.861Z,96798.00
2023-01-11T07:33:22.575Z,96792.00
2023-01-11T07:35:50.313Z,96814.00
2023-01-11T07:38:16.499Z,96799.00
2023-01-11T07:40:42.805Z,96793.00
2023-01-11T07:43:14.146Z,96789.00
2023-01-11T07:45:56.787Z,96811.00
2023-01-11T07:48:25.765Z,96812.00
2023-01-11T07:50:53.203Z,96833.00
2023-01-11T07:53:19.837Z,96800.00
2023-01-11T07:55:46.401Z,96816.00
2023-01-11T07:58:14.505Z,96809.00
2023-01-11T08:00:41.943Z,96817.00
2023-01-11T08:03:09.156Z,96828.00
2023-01-11T08:05:35.566Z,96815.00
2023-01-11T08:08:02.116Z,96827.00
2023-01-11T08:10:28.578Z,96837.00
2023-01-11T08:13:13.617Z,96840.00
2023-01-11T08:15:41.670Z,96860.00
2023-01-11T08:18:10.637Z,96862.00
2023-01-11T08:20:39.338Z,96874.00
2023-01-11T08:23:09.667Z,96853.00
2023-01-11T08:25:36.611Z,96867.00
2023-01-11T08:28:05.944Z,96829.00
2023-01-11T08:30:32.727Z,96854.00
2023-01-11T08:33:00.868Z,96847.00
2023-01-11T08:35:27.146Z,96870.00
2023-01-11T08:37:53.516Z,96858.00
2023-01-11T08:40:23.892Z,96869.00
2023-01-11T08:42:56.005Z,96856.00
2023-01-11T08:45:22.283Z,96839.00
2023-01-11T08:47:51.063Z,96889.00
2023-01-11T08:50:18.164Z,96837.00
2023-01-11T08:52:46.169Z,96881.00
2023-01-11T08:55:14.374Z,96874.00
2023-01-11T08:57:40.571Z,96881.00
2023-01-11T09:00:09.506Z,96891.00
2023-01-11T09:02:35.745Z,96893.00
2023-01-11T09:05:02.265Z,96908.00
2023-01-11T09:07:28.685Z,96861.00
2023-01-11T09:09:54.853Z,96891.00
2023-01-11T09:12:21.058Z,96870.00
2023-01-11T09:14:50.387Z,96900.00
2023-01-11T09:17:16.553Z,96874.00
2023-01-11T09:19:42.726Z,96926.00
2023-01-11T09:22:08.940Z,96882.00
2023-01-11T09:24:35.258Z,96901.00
2023-01-11T09:27:01.507Z,96883.00
2023-01-11T09:29:31.331Z,96929.00
2023-01-11T09:31:57.529Z,96901.00
2023-01-11T09:34:26.435Z,96896.00
2023-01-11T09:36:54.450Z,96905.00
2023-01-11T09:39:25.013Z,96916.00
2023-01-11T09:42:43.924Z,96899.00
2023-01-11T09:45:19.516Z,96880.00
2023-01-11T09:47:50.480Z,96894.00
2023-01-11T09:50:27.826Z,96901.00
2023-01-11T09:53:08.961Z,96914.00
2023-01-11T09:55:45.810Z,96895.00
2023-01-11T09:58:33.370Z,96914.00
2023-01-11T10:01:24.161Z,96888.00
2023-01-11T10:04:29.382Z,96879.00
2023-01-11T10:07:28.348Z,96901.00
2023-01-11T10:18:27.915Z,96857.00
2023-01-11T10:19:40.207Z,96869.00
2023-01-11T10:22:36.077Z,96879.00
2023-01-11T10:25:39.962Z,96899.00
2023-01-11T10:28:53.622Z,96922.00
2023-01-11T10:31:31.618Z,96923.00
2023-01-11T10:34:36.384Z,96885.00
2023-01-11T10:37:35.335Z,96918.00
2023-01-11T10:40:36.936Z,96923.00
2023-01-11T10:43:21.669Z,96892.00
2023-01-11T10:46:25.990Z,96930.00
2023-01-11T10:49:17.661Z,96927.00
2023-01-11T10:51:48.473Z,96941.00
2023-01-11T10:54:26.606Z,96946.00
2023-01-11T10:57:26.183Z,96948.00
2023-01-11T11:00:34.842Z,96957.00
2023-01-11T11:03:17.899Z,96985.00
2023-01-11T11:06:13.467Z,96999.00
2023-01-11T11:09:08.497Z,97002.00
2023-01-11T11:12:28.035Z,96990.00
2023-01-11T11:15:13.459Z,96981.00
2023-01-11T11:17:47.885Z,96963.00
2023-01-11T11:20:30.376Z,96969.00
2023-01-11T11:22:56.954Z,96954.00
2023-01-11T11:25:36.598Z,96967.00
2023-01-11T11:28:22.299Z,96966.00
2023-01-11T11:30:53.369Z,96961.00
2023-01-11T11:33:31.601Z,96975.00
2023-01-11T11:36:08.079Z,96963.00
2023-01-11T11:38:40.921Z,96972.00
2023-01-11T11:41:14.290Z,96960.00
2023-01-11T11:43:46.752Z,96978.00
2023-01-11T11:46:19.819Z,96985.00
2023-01-11T11:49:11.695Z,96965.00
2023-01-11T11:51:41.042Z,96969.00
2023-01-11T11:54:22.114Z,97000.00
2023-01-11T11:56:49.092Z,97011.00
2023-01-11T11:59:20.334Z,96996.00
2023-01-11T12:01:57.368Z,97009.00
2023-01-11T12:04:46.415Z,97005.00
2023-01-11T12:07:26.948Z,97009.00
2023-01-11T12:10:08.545Z,97013.00
2023-01-11T12:12:59.997Z,97014.00
2023-01-11T12:15:29.446Z,97016.00
2023-01-11T12:18:25.220Z,97015.00
2023-01-11T12:20:52.085Z,97007.00
2023-01-11T12:23:21.545Z,97020.00
2023-01-11T12:26:17.946Z,97025.00
2023-01-11T12:29:23.124Z,97017.00
2023-01-11T12:32:27.481Z,97017.00
2023-01-11T12:35:27.584Z,97012.00
2023-01-11T12:38:41.815Z,97030.00
2023-01-11T12:42:16.491Z,97025.00
2023-01-11T12:45:14.471Z,97036.00
2023-01-11T12:48:02.123Z,97030.00
2023-01-11T12:53:30.456Z,97039.00
2023-01-11T12:57:04.998Z,97042.00
2023-01-11T13:00:07.733Z,97047.00
2023-01-11T13:02:36.974Z,97057.00
2023-01-11T13:05:43.212Z,97048.00
2023-01-11T13:08:34.583Z,97056.00
2023-01-11T13:11:34.272Z,97050.00
2023-01-11T13:14:22.281Z,97069.00
2023-01-11T13:17:14.173Z,97069.00
2023-01-11T13:20:08.128Z,97055.00
2023-01-11T13:22:41.759Z,97053.00
2023-01-11T13:25:27.533Z,97069.00
2023-01-11T13:27:57.373Z,97080.00
2023-01-11T13:30:25.402Z,97070.00
2023-01-11T13:33:13.262Z,97070.00
2023-01-11T13:36:09.714Z,97067.00
2023-01-11T13:39:09.380Z,97072.00
2023-01-11T13:41:50.190Z,97076.00
2023-01-11T13:44:26.978Z,97073.00
2023-01-11T13:47:10.999Z,97077.00
2023-01-11T13:49:42.028Z,97091.00
2023-01-11T13:52:15.075Z,97085.00
2023-01-11T13:55:11.248Z,97097.00
2023-01-11T13:58:03.547Z,97087.00
2023-01-11T14:00:47.649Z,97084.00
2023-01-11T14:03:47.508Z,97103.00
2023-01-11T14:06:32.980Z,97105.00
2023-01-11T14:09:38.341Z,97092.00
2023-01-11T14:12:29.956Z,97099.00
2023-01-11T14:15:30.684Z,97109.00
2023-01-11T14:18:29.920Z,97119.00
2023-01-11T14:21:20.905Z,97122.00
2023-01-11T14:23:53.982Z,97121.00
2023-01-11T14:26:48.969Z,97123.00
2023-01-11T14:30:20.648Z,97123.00
2023-01-11T14:33:47.702Z,97147.00
2023-01-11T14:37:22.691Z,97142.00
2023-01-11T14:40:54.106Z,97148.00
2023-01-11T14:43:35.358Z,97152.00
2023-01-11T14:46:30.594Z,97138.00
2023-01-11T14:49:49.628Z,97151.00
2023-01-11T14:52:39.637Z,97157.00
2023-01-11T14:55:29.016Z,97157.00
2023-01-11T14:57:55.056Z,97160.00
2023-01-11T15:00:26.414Z,97145.00
2023-01-11T15:02:59.732Z,97169.00
2023-01-11T15:05:32.353Z,97167.00
2023-01-11T15:08:13.556Z,97162.00
2023-01-11T15:11:28.681Z,97158.00
2023-01-11T15:14:03.908Z,97171.00
2023-01-11T15:16:55.736Z,97166.00
2023-01-11T15:19:28.041Z,97160.00
2023-01-11T15:21:57.601Z,97168.00
2023-01-11T15:24:31.318Z,97171.00
2023-01-11T15:26:59.990Z,97154.00
2023-01-11T15:29:53.337Z,97153.00
2023-01-11T15:32:29.233Z,97166.00
2023-01-11T15:35:37.199Z,97164.00
2023-01-11T15:38:18.901Z,97159.00
2023-01-11T15:40:45.991Z,97161.00
2023-01-11T15:43:32.271Z,97161.00
2023-01-11T15:46:54.738Z,97178.00
2023-01-11T15:50:02.163Z,97174.00
2023-01-11T15:53:19.652Z,97162.00
2023-01-11T15:56:30.585Z,97178.00
2023-01-11T15:59:43.186Z,97180.00
2023-01-11T16:02:15.192Z,97184.00
2023-01-11T16:04:55.616Z,97182.00
2023-01-11T16:07:42.854Z,97204.00
2023-01-11T16:10:44.602Z,97199.00
2023-01-11T16:13:58.228Z,97209.00
2023-01-11T16:16:30.798Z,97209.00
2023-01-11T16:19:21.048Z,97216.00
2023-01-11T16:21:51.644Z,97199.00
2023-01-11T16:24:28.338Z,97224.00
2023-01-11T16:27:01.865Z,97219.00
2023-01-11T16:29:37.270Z,97213.00
2023-01-11T16:32:18.774Z,97215.00
2023-01-11T16:34:49.353Z,97217.00
2023-01-11T16:37:37.938Z,97232.00
2023-01-11T16:40:10.560Z,97229.00
2023-01-11T16:43:03.032Z,97234.00
2023-01-11T16:45:45.444Z,97240.00
2023-01-11T16:48:27.682Z,97231.00
2023-01-11T16:51:18.687Z,97228.00
2023-01-11T16:53:57.105Z,97242.00
2023-01-11T16:56:23.880Z,97245.00
2023-01-11T16:59:07.334Z,97259.00
2023-01-11T17:01:53.892Z,97254.00
2023-01-11T17:04:36.622Z,97240.00
2023-01-11T17:07:21.709Z,97238.00
2023-01-11T17:09:48.229Z,97247.00
2023-01-11T17:12:23.493Z,97232.00
2023-01-11T17:15:36.178Z,97239.00
2023-01-11T17:18:05.674Z,97255.00
2023-01-11T17:20:32.625Z,97247.00
2023-01-11T17:22:59.028Z,97248.00
2023-01-11T17:25:44.055Z,97254.00
2023-01-11T17:28:19.217Z,97263.00
2023-01-11T17:30:48.819Z,97272.00
2023-01-11T17:33:32.473Z,97270.00
2023-01-11T17:36:00.167Z,97277.00
2023-01-11T17:38:27.913Z,97277.00
2023-01-11T17:40:59.320Z,97282.00
2023-01-11T17:43:49.031Z,97279.00
2023-01-11T17:46:24.663Z,97309.00
2023-01-11T17:48:57.562Z,97296.00
2023-01-11T17:51:33.877Z,97295.00
2023-01-11T17:54:00.203Z,97302.00
2023-01-11T17:56:32.309Z,97315.00
2023-01-11T17:59:18.655Z,97316.00
2023-01-11T18:01:49.689Z,97319.00
2023-01-11T18:04:21.938Z,97321.00
2023-01-11T18:06:52.843Z,97326.00
2023-01-11T18:09:28.213Z,97345.00
2023-01-11T18:12:10.167Z,97332.00
2023-01-11T18:14:52.268Z,97332.00
2023-01-11T18:17:38.114Z,97319.00
2023-01-11T18:20:10.050Z,97329.00
2023-01-11T18:22:41.093Z,97336.00
2023-01-11T18:25:28.033Z,97333.00
2023-01-11T18:28:28.212Z,97334.00
2023-01-11T18:31:00.704Z,97334.00
2023-01-11T18:33:32.355Z,97322.00
2023-01-11T18:36:02.532Z,97325.00
2023-01-11T18:38:34.949Z,97310.00
2023-01-11T18:41:26.963Z,97317.00
2023-01-11T18:43:54.011Z,97322.00
2023-01-11T18:46:20.302Z,97323.00
2023-01-11T18:48:46.461Z,97326.00
2023-01-11T18:51:32.972Z,97321.00
2023-01-11T18:53:59.692Z,97325.00
2023-01-11T18:56:26.032Z,97332.00
2023-01-11T18:58:52.208Z,97335.00
2023-01-11T19:01:18.692Z,97325.00
2023-01-11T19:03:46.194Z,97342.00
2023-01-11T19:06:12.733Z,97324.00
2023-01-11T19:08:39.261Z,97313.00
2023-01-11T19:11:05.360Z,97322.00
2023-01-11T19:13:31.770Z,97325.00
2023-01-11T19:16:01.046Z,97321.00
2023-01-11T19:18:28.342Z,97333.00
2023-01-11T19:21:08.775Z,97317.00
2023-01-11T19:23:34.927Z,97325.00
2023-01-11T19:26:01.449Z,97329.00
2023-01-11T19:28:28.509Z,97314.00
2023-01-11T19:30:54.627Z,97315.00
2023-01-11T19:33:21.212Z,97326.00
2023-01-11T19:35:48.841Z,97316.00
2023-01-11T19:38:19.474Z,97331.00
2023-01-11T19:40:49.606Z,97315.00
2023-01-11T19:43:16.802Z,97318.00
2023-01-11T19:45:42.912Z,97297.00
2023-01-11T19:48:10.109Z,97307.00
2023-01-11T19:50:36.441Z,97292.00
2023-01-11T19:53:05.273Z,97281.00
2023-01-11T19:55:31.448Z,97291.00
2023-01-11T19:57:57.615Z,97298.00
2023-01-11T20:00:23.712Z,97293.00
2023-01-11T20:02:49.894Z,97303.00
2023-01-11T20:05:16.119Z,97280.00
2023-01-11T20:07:42.339Z,97286.00
2023-01-11T20:10:09.188Z,97280.00
2023-01-11T20:12:35.313Z,97296.00
2023-01-11T20:15:02.548Z,97283.00
2023-01-11T20:17:29.241Z,97283.00
2023-01-11T20:19:55.406Z,97266.00
2023-01-11T20:22:25.400Z,97273.00
2023-01-11T20:24:51.518Z,97263.00
2023-01-11T20:27:18.195Z,97266.00
2023-01-11T20:29:44.950Z,97258.00
2023-01-11T20:32:35.096Z,97256.00
2023-01-11T20:34:57.479Z,97269.00
2023-01-11T20:37:23.620Z,97266.00
2023-01-11T20:39:49.801Z,97258.00
2023-01-11T20:42:16.165Z,97261.00
2023-01-11T20:44:42.308Z,97272.00
2023-01-11T20:47:08.480Z,97268.00
2023-01-11T20:49:34.625Z,97269.00
2023-01-11T20:52:00.804Z,97275.00
2023-01-11T20:54:26.956Z,97259.00
2023-01-11T20:56:53.386Z,97265.00
2023-01-11T20:59:20.417Z,97273.00
2023-01-11T21:01:48.414Z,97259.00
2023-01-11T21:04:16.969Z,97243.00
2023-01-11T21:06:47.255Z,97264.00
2023-01-11T21:09:16.753Z,97257.00
2023-01-11T21:11:43.562Z,97253.00
2023-01-11T21:14:11.256Z,97255.00
2023-01-11T21:16:41.273Z,97257.00
2023-01-11T21:19:11.560Z,97258.00
2023-01-11T21:21:37.940Z,97253.00
2023-01-11T21:24:05.402Z,97253.00
2023-01-11T21:26:33.655Z,97253.00
2023-01-11T21:29:03.275Z,97235.00
2023-01-11T21:31:33.428Z,97259.00
2023-01-11T21:34:00.001Z,97234.00
2023-01-11T21:36:29.534Z,97232.00
2023-01-11T21:38:57.833Z,97218.00
2023-01-11T21:41:46.964Z,97225.00
2023-01-11T21:44:14.346Z,97247.00
2023-01-11T21:46:41.786Z,97241.00
2023-01-11T21:49:10.189Z,97245.00
2023-01-11T21:51:36.748Z,97249.00
2023-01-11T21:54:06.051Z,97253.00
2023-01-11T21:56:32.405Z,97228.00
2023-01-11T21:58:58.770Z,97243.00
2023-01-11T22:01:25.097Z,97258.00
2023-01-11T22:03:51.258Z,97236.00
2023-01-11T22:06:17.605Z,97236.00
2023-01-11T22:08:45.999Z,97234.00
2023-01-11T22:11:14.832Z,97226.00
2023-01-11T22:13:41.996Z,97217.00
2023-01-11T22:16:17.833Z,97220.00
2023-01-11T22:18:45.051Z,97221.00
2023-01-11T22:21:16.284Z,97218.00
2023-01-11T22:23:43.713Z,97207.00
2023-01-11T22:26:16.507Z,97203.00
2023-01-11T22:29:03.587Z,97195.00
2023-01-11T22:31:32.044Z,97211.00
2023-01-11T22:33:59.766Z,97194.00
2023-01-11T22:36:27.969Z,97203.00
2023-01-11T22:38:54.675Z,97204.00
2023-01-11T22:41:21.784Z,97202.00
2023-01-11T22:43:53.148Z,97168.00
2023-01-11T22:46:25.439Z,97189.00
2023-01-11T22:48:52.778Z,97208.00
2023-01-11T22:51:23.011Z,97205.00
2023-01-11T22:53:51.415Z,97199.00
2023-01-11T22:56:22.821Z,97180.00
2023-01-11T22:58:50.580Z,97153.00
2023-01-11T23:01:28.712Z,97158.00
2023-01-11T23:03:56.920Z,97165.00
2023-01-11T23:06:38.843Z,97166.00
2023-01-11T23:09:08.711Z,97167.00
2023-01-11T23:11:58.227Z,97173.00
2023-01-11T23:14:28.996Z,97168.00
2023-01-11T23:16:58.359Z,97178.00
2023-01-11T23:19:24.851Z,97172.00
2023-01-11T23:21:51.521Z,97166.00
2023-01-11T23:24:17.891Z,97158.00
2023-01-11T23:26:45.420Z,97154.00
2023-01-11T23:29:12.170Z,97172.00
2023-01-11T23:31:38.496Z,97159.00
2023-01-11T23:34:07.139Z,97154.00
2023-01-11T23:36:37.243Z,97165.00
2023-01-11T23:39:18.737Z,97144.00
2023-01-11T23:42:03.726Z,97152.00
2023-01-11T23:44:30.342Z,97151.00
2023-01-11T23:47:14.959Z,97148.00
2023-01-11T23:49:42.782Z,97137.00
2023-01-11T23:52:09.522Z,97133.00
2023-01-11T23:54:38.006Z,97136.00
2023-01-11T23:57:04.273Z,97139.00
2023-01-11T23:59:31.157Z,97141.00
